createdAt,value
2023-12-08T00:02:22.638Z,5.70
2023-12-08T00:04:49.546Z,5.93
2023-12-08T00:07:16.462Z,5.88
2023-12-08T00:09:43.574Z,6.43
2023-12-08T00:12:10.410Z,5.82
2023-12-08T00:14:37.347Z,5.70
2023-12-08T00:17:04.346Z,5.43
2023-12-08T00:19:31.264Z,5.75
2023-12-08T00:21:58.413Z,5.95
2023-12-08T00:24:25.823Z,5.60
2023-12-08T00:26:52.738Z,5.22
2023-12-08T00:29:22.516Z,5.70
2023-12-08T00:31:49.331Z,5.65
2023-12-08T00:34:16.347Z,5.75
2023-12-08T00:36:43.313Z,5.47
2023-12-08T00:39:10.464Z,5.50
2023-12-08T00:41:37.348Z,4.90
2023-12-08T00:44:05.049Z,5.38
2023-12-08T00:46:32.435Z,4.82
2023-12-08T00:48:59.434Z,4.85
2023-12-08T00:51:26.565Z,5.20
2023-12-08T00:53:53.564Z,4.97
2023-12-08T00:56:20.437Z,4.93
2023-12-08T00:58:47.272Z,4.78
2023-12-08T01:01:14.159Z,5.75
2023-12-08T01:03:41.275Z,4.80
2023-12-08T01:06:08.396Z,4.90
2023-12-08T01:08:35.401Z,5.25
2023-12-08T01:11:02.258Z,4.90
2023-12-08T01:13:29.129Z,5.55
2023-12-08T01:15:55.989Z,5.32
2023-12-08T01:18:23.100Z,5.03
2023-12-08T01:20:50.195Z,5.00
2023-12-08T01:23:17.002Z,5.35
2023-12-08T01:25:43.820Z,5.13
2023-12-08T01:28:10.674Z,5.25
2023-12-08T01:30:37.548Z,5.55
2023-12-08T01:33:04.872Z,4.40
2023-12-08T01:35:31.883Z,4.10
2023-12-08T01:37:58.726Z,5.10
2023-12-08T01:40:25.803Z,4.18
2023-12-08T01:42:52.731Z,4.75
2023-12-08T01:45:19.556Z,5.60
2023-12-08T01:47:48.667Z,4.70
2023-12-08T01:50:16.026Z,4.45
2023-12-08T01:52:43.595Z,4.78
2023-12-08T01:55:11.502Z,4.65
2023-12-08T01:57:38.501Z,4.03
2023-12-08T02:00:07.359Z,4.45
2023-12-08T02:02:37.724Z,4.70
2023-12-08T02:05:05.374Z,4.25
2023-12-08T02:07:33.164Z,4.50
2023-12-08T02:10:00.140Z,4.13
2023-12-08T02:12:27.244Z,4.28
2023-12-08T02:14:54.288Z,4.03
2023-12-08T02:17:37.132Z,3.35
2023-12-08T02:20:04.734Z,4.60
2023-12-08T02:22:31.561Z,5.50
2023-12-08T02:24:58.369Z,4.03
2023-12-08T02:27:29.146Z,4.45
2023-12-08T02:29:56.568Z,4.18
2023-12-08T02:32:33.177Z,4.82
2023-12-08T02:35:02.891Z,4.80
2023-12-08T02:37:34.143Z,4.03
2023-12-08T02:40:02.413Z,4.20
2023-12-08T02:42:29.303Z,3.90
2023-12-08T02:44:56.188Z,4.47
2023-12-08T02:47:23.264Z,4.30
2023-12-08T02:49:50.198Z,3.97
2023-12-08T02:52:17.076Z,5.00
2023-12-08T02:54:43.904Z,4.40
2023-12-08T02:57:10.750Z,3.90
2023-12-08T02:59:37.697Z,3.95
2023-12-08T03:02:04.642Z,4.57
2023-12-08T03:04:31.550Z,4.13
2023-12-08T03:06:58.457Z,5.30
2023-12-08T03:09:25.278Z,5.22
2023-12-08T03:11:52.208Z,4.10
2023-12-08T03:14:19.091Z,4.05
2023-12-08T03:16:47.646Z,4.72
2023-12-08T03:19:14.557Z,5.35
2023-12-08T03:21:41.456Z,5.22
2023-12-08T03:24:08.294Z,4.72
2023-12-08T03:26:35.160Z,4.13
2023-12-08T03:29:01.993Z,4.15
2023-12-08T03:31:31.089Z,3.63
2023-12-08T03:33:58.120Z,3.85
2023-12-08T03:36:25.442Z,4.88
2023-12-08T03:38:52.487Z,4.30
2023-12-08T03:41:19.324Z,4.63
2023-12-08T03:43:46.431Z,4.20
2023-12-08T03:46:13.257Z,4.72
2023-12-08T03:48:40.297Z,4.38
2023-12-08T03:51:07.596Z,4.53
2023-12-08T03:53:34.683Z,4.80
2023-12-08T03:56:01.683Z,4.53
2023-12-08T03:58:29.483Z,4.13
2023-12-08T04:00:56.396Z,4.25
2023-12-08T04:03:23.882Z,4.70
2023-12-08T04:05:51.048Z,4.85
2023-12-08T04:08:18.344Z,4.80
2023-12-08T04:10:45.391Z,4.70
2023-12-08T04:13:12.235Z,5.15
2023-12-08T04:15:39.094Z,4.53
2023-12-08T04:18:06.860Z,5.30
2023-12-08T04:20:34.184Z,4.78
2023-12-08T04:23:01.126Z,4.60
2023-12-08T04:25:28.354Z,5.28
2023-12-08T04:27:55.164Z,4.40
2023-12-08T04:30:22.042Z,4.22
2023-12-08T04:32:49.016Z,5.03
2023-12-08T04:35:15.875Z,4.45
2023-12-08T04:37:42.750Z,4.53
2023-12-08T04:40:10.271Z,5.43
2023-12-08T04:42:40.300Z,5.03
2023-12-08T04:45:09.152Z,5.35
2023-12-08T04:47:36.279Z,4.75
2023-12-08T04:50:03.806Z,4.82
2023-12-08T04:52:30.762Z,4.85
2023-12-08T04:54:57.668Z,4.80
2023-12-08T04:57:24.720Z,4.57
2023-12-08T04:59:51.965Z,4.97
2023-12-08T05:02:18.797Z,5.03
2023-12-08T05:04:45.597Z,4.63
2023-12-08T05:07:12.518Z,4.47
2023-12-08T05:09:39.346Z,4.45
2023-12-08T05:12:06.507Z,4.15
2023-12-08T05:14:33.457Z,4.55
2023-12-08T05:17:00.293Z,4.13
2023-12-08T05:19:27.534Z,4.50
2023-12-08T05:21:54.513Z,4.57
2023-12-08T05:24:21.507Z,4.30
2023-12-08T05:26:49.004Z,4.53
2023-12-08T05:29:15.937Z,4.55
2023-12-08T05:31:43.596Z,4.75
2023-12-08T05:34:10.599Z,4.50
2023-12-08T05:36:37.540Z,3.92
2023-12-08T05:39:04.650Z,4.50
2023-12-08T05:41:31.455Z,4.43
2023-12-08T05:43:58.318Z,4.18
2023-12-08T05:46:25.498Z,4.50
2023-12-08T05:48:52.490Z,4.40
2023-12-08T05:51:19.496Z,3.70
2023-12-08T05:53:46.366Z,4.03
2023-12-08T05:56:13.253Z,4.78
2023-12-08T05:58:40.130Z,4.45
2023-12-08T06:01:07.124Z,4.80
2023-12-08T06:03:34.073Z,4.30
2023-12-08T06:06:01.355Z,4.05
2023-12-08T06:08:28.332Z,4.22
2023-12-08T06:10:55.142Z,4.78
2023-12-08T06:13:21.960Z,4.60
2023-12-08T06:15:48.875Z,3.83
2023-12-08T06:18:15.894Z,3.85
2023-12-08T06:20:42.919Z,4.40
2023-12-08T06:23:09.764Z,4.57
2023-12-08T06:25:36.578Z,4.88
2023-12-08T06:28:03.941Z,4.13
2023-12-08T06:30:30.799Z,4.93
2023-12-08T06:32:57.917Z,4.90
2023-12-08T06:35:24.912Z,4.00
2023-12-08T06:37:52.022Z,4.90
2023-12-08T06:40:18.976Z,5.30
2023-12-08T06:42:45.826Z,5.63
2023-12-08T06:45:12.747Z,5.25
2023-12-08T06:47:39.916Z,5.20
2023-12-08T06:50:07.413Z,4.20
2023-12-08T06:52:34.298Z,4.55
2023-12-08T06:55:01.201Z,4.15
2023-12-08T06:57:28.432Z,4.40
2023-12-08T06:59:55.422Z,4.97
2023-12-08T07:02:22.611Z,4.93
2023-12-08T07:04:49.498Z,4.45
2023-12-08T07:07:16.848Z,4.47
2023-12-08T07:09:43.791Z,4.32
2023-12-08T07:12:10.704Z,4.20
2023-12-08T07:14:37.673Z,4.32
2023-12-08T07:17:04.748Z,4.10
2023-12-08T07:19:32.206Z,4.00
2023-12-08T07:21:59.639Z,4.22
2023-12-08T07:24:26.651Z,4.43
2023-12-08T07:26:56.202Z,4.10
2023-12-08T07:29:24.589Z,4.20
2023-12-08T07:31:51.437Z,4.68
2023-12-08T07:34:18.389Z,4.50
2023-12-08T07:36:45.446Z,4.55
2023-12-08T07:39:12.326Z,4.70
2023-12-08T07:41:39.250Z,4.45
2023-12-08T07:44:06.125Z,4.50
2023-12-08T07:46:33.205Z,4.18
2023-12-08T07:49:00.155Z,4.53
2023-12-08T07:51:27.166Z,3.92
2023-12-08T07:53:54.070Z,4.65
2023-12-08T07:56:23.284Z,4.28
2023-12-08T07:58:50.130Z,4.07
2023-12-08T08:01:16.992Z,5.15
2023-12-08T08:03:43.968Z,4.30
2023-12-08T08:06:11.084Z,4.28
2023-12-08T08:08:38.397Z,4.70
2023-12-08T08:11:05.534Z,5.35
2023-12-08T08:13:32.564Z,5.03
2023-12-08T08:15:59.448Z,5.32
2023-12-08T08:18:26.432Z,5.13
2023-12-08T08:20:53.378Z,4.78
2023-12-08T08:23:20.220Z,5.22
2023-12-08T08:25:47.019Z,4.53
2023-12-08T08:28:13.873Z,5.10
2023-12-08T08:30:45.227Z,4.63
2023-12-08T08:33:12.810Z,5.30
2023-12-08T08:35:40.966Z,5.57
2023-12-08T08:38:08.317Z,4.80
2023-12-08T08:40:35.102Z,4.72
2023-12-08T08:43:01.978Z,4.65
2023-12-08T08:45:30.042Z,4.93
2023-12-08T08:47:57.018Z,4.78
2023-12-08T08:50:23.979Z,5.10
2023-12-08T08:52:50.843Z,5.07
2023-12-08T08:55:17.804Z,4.90
2023-12-08T08:57:45.703Z,4.88
2023-12-08T09:00:14.136Z,4.70
2023-12-08T09:02:42.728Z,4.95
2023-12-08T09:05:09.685Z,4.60
2023-12-08T09:07:37.853Z,5.30
2023-12-08T09:10:05.176Z,4.10
2023-12-08T09:12:32.275Z,4.20
2023-12-08T09:14:59.114Z,5.25
2023-12-08T09:17:25.978Z,4.82
2023-12-08T09:19:52.889Z,4.55
2023-12-08T09:22:19.734Z,4.57
2023-12-08T09:24:49.016Z,5.10
2023-12-08T09:27:15.844Z,4.70
2023-12-08T09:29:43.277Z,4.95
2023-12-08T09:32:10.248Z,4.82
2023-12-08T09:34:37.301Z,5.18
2023-12-08T09:37:26.231Z,5.28
2023-12-08T09:39:51.133Z,5.10
2023-12-08T09:42:31.176Z,5.00
2023-12-08T09:44:58.279Z,4.90
2023-12-08T09:47:29.096Z,4.47
2023-12-08T09:49:57.187Z,4.95
2023-12-08T09:52:24.132Z,5.03
2023-12-08T09:54:51.263Z,5.47
2023-12-08T09:57:21.406Z,4.93
2023-12-08T09:59:49.031Z,4.55
2023-12-08T10:02:15.939Z,5.00
2023-12-08T10:04:42.891Z,5.28
2023-12-08T10:07:12.008Z,5.30
2023-12-08T10:09:38.980Z,4.88
2023-12-08T10:12:06.398Z,5.13
2023-12-08T10:14:33.559Z,5.25
2023-12-08T10:17:02.483Z,4.90
2023-12-08T10:19:29.608Z,5.15
2023-12-08T10:22:03.565Z,5.22
2023-12-08T10:24:31.881Z,5.30
2023-12-08T10:27:02.427Z,4.93
2023-12-08T10:29:33.180Z,5.07
2023-12-08T10:32:00.221Z,4.50
2023-12-08T10:34:27.809Z,5.15
2023-12-08T10:36:58.229Z,4.57
2023-12-08T10:39:29.006Z,5.10
2023-12-08T10:41:56.974Z,4.70
2023-12-08T10:44:26.465Z,4.90
2023-12-08T10:46:54.236Z,4.95
2023-12-08T10:49:21.626Z,5.18
2023-12-08T10:51:49.370Z,6.10
2023-12-08T10:54:18.627Z,5.57
2023-12-08T10:56:49.687Z,5.78
2023-12-08T10:59:22.762Z,5.47
2023-12-08T11:01:52.776Z,5.65
2023-12-08T11:04:25.362Z,5.10
2023-12-08T11:07:04.375Z,5.35
2023-12-08T11:09:38.962Z,4.80
2023-12-08T11:12:07.992Z,4.82
2023-12-08T11:14:39.809Z,4.80
2023-12-08T11:17:18.023Z,4.85
2023-12-08T11:19:46.173Z,5.40
2023-12-08T11:22:13.479Z,5.18
2023-12-08T11:24:42.367Z,5.15
2023-12-08T11:27:19.796Z,5.18
2023-12-08T11:30:36.901Z,5.40
2023-12-08T11:33:29.946Z,6.05
2023-12-08T11:36:15.448Z,8.55
2023-12-08T11:38:42.435Z,5.88
2023-12-08T11:41:13.756Z,5.63
2023-12-08T11:43:44.674Z,5.55
2023-12-08T11:46:12.158Z,5.18
2023-12-08T11:48:39.247Z,5.20
2023-12-08T11:51:07.506Z,5.30
2023-12-08T11:53:49.709Z,4.88
2023-12-08T11:56:49.941Z,5.40
2023-12-08T11:59:23.669Z,4.88
2023-12-08T12:01:50.594Z,5.60
2023-12-08T12:04:19.274Z,5.38
2023-12-08T12:06:51.034Z,6.32
2023-12-08T12:09:18.566Z,6.07
2023-12-08T12:11:49.521Z,5.32
2023-12-08T12:14:20.559Z,6.05
2023-12-08T12:16:48.724Z,5.28
2023-12-08T12:19:16.019Z,5.50
2023-12-08T12:21:44.568Z,5.75
2023-12-08T12:24:11.439Z,5.60
2023-12-08T12:26:38.275Z,5.22
2023-12-08T12:29:05.972Z,5.63
2023-12-08T12:31:32.807Z,5.88
2023-12-08T12:33:59.724Z,5.38
2023-12-08T12:36:26.662Z,5.97
2023-12-08T12:38:53.790Z,6.32
2023-12-08T12:41:24.725Z,5.72
2023-12-08T12:43:58.561Z,5.50
2023-12-08T12:46:28.414Z,5.80
2023-12-08T12:48:56.522Z,5.60
2023-12-08T12:51:40.200Z,5.70
2023-12-08T12:56:34.855Z,5.43
2023-12-08T12:59:09.259Z,6.03
2023-12-08T13:01:36.911Z,6.30
2023-12-08T13:04:04.893Z,5.57
2023-12-08T13:06:37.712Z,5.70
2023-12-08T13:09:06.831Z,5.78
2023-12-08T13:11:33.755Z,6.43
2023-12-08T13:14:00.730Z,6.32
2023-12-08T13:16:27.627Z,6.60
2023-12-08T13:18:54.627Z,6.93
2023-12-08T13:21:22.290Z,7.18
2023-12-08T13:23:49.266Z,7.30
2023-12-08T13:26:17.298Z,6.90
2023-12-08T13:28:44.274Z,6.85
2023-12-08T13:31:11.128Z,6.45
2023-12-08T13:33:38.148Z,6.28
2023-12-08T13:36:05.602Z,6.30
2023-12-08T13:38:32.534Z,5.47
2023-12-08T13:40:59.388Z,6.00
2023-12-08T13:43:26.184Z,5.18
2023-12-08T13:45:53.068Z,5.63
2023-12-08T13:48:22.706Z,6.05
2023-12-08T13:50:55.591Z,6.57
2023-12-08T13:53:28.698Z,5.22
2023-12-08T13:55:55.884Z,5.85
2023-12-08T13:58:22.708Z,6.00
2023-12-08T14:00:49.591Z,6.72
2023-12-08T14:03:16.602Z,5.78
2023-12-08T14:05:43.722Z,6.35
2023-12-08T14:08:11.179Z,6.53
2023-12-08T14:10:38.035Z,6.60
2023-12-08T14:13:06.375Z,6.65
2023-12-08T14:15:33.525Z,5.93
2023-12-08T14:18:00.509Z,6.25
2023-12-08T14:20:27.420Z,6.00
2023-12-08T14:22:54.480Z,6.43
2023-12-08T14:25:21.430Z,5.93
2023-12-08T14:27:48.269Z,5.88
2023-12-08T14:30:15.216Z,6.43
2023-12-08T14:32:42.251Z,6.38
2023-12-08T14:35:18.625Z,6.00
2023-12-08T14:37:50.289Z,5.57
2023-12-08T14:40:18.280Z,6.13
2023-12-08T14:42:45.149Z,5.97
2023-12-08T14:45:12.148Z,5.82
2023-12-08T14:47:40.091Z,5.85
2023-12-08T14:50:10.520Z,5.95
2023-12-08T14:52:38.501Z,6.50
2023-12-08T14:55:13.672Z,6.57
2023-12-08T14:57:42.779Z,6.95
2023-12-08T15:00:12.927Z,6.57
2023-12-08T15:05:08.448Z,6.32
2023-12-08T15:07:35.311Z,6.47
2023-12-08T15:10:02.382Z,7.95
2023-12-08T15:12:29.256Z,6.53
2023-12-08T15:14:56.163Z,6.40
2023-12-08T15:17:22.981Z,6.28
2023-12-08T15:19:49.948Z,6.03
2023-12-08T15:22:16.893Z,6.25
2023-12-08T15:24:44.327Z,6.00
2023-12-08T15:27:11.187Z,5.95
2023-12-08T15:29:38.053Z,6.40
2023-12-08T15:32:04.920Z,6.25
2023-12-08T15:34:31.841Z,5.85
2023-12-08T15:36:58.732Z,6.50
2023-12-08T15:39:25.622Z,6.18
2023-12-08T15:41:52.489Z,6.75
2023-12-08T15:44:19.295Z,6.18
2023-12-08T15:46:46.139Z,6.35
2023-12-08T15:49:13.141Z,6.80
2023-12-08T15:51:43.742Z,6.85
2023-12-08T15:54:11.090Z,6.65
2023-12-08T15:56:39.336Z,7.53
2023-12-08T15:59:06.766Z,7.63
2023-12-08T16:01:33.631Z,6.82
2023-12-08T16:04:01.120Z,6.97
2023-12-08T16:06:28.215Z,5.97
2023-12-08T16:08:55.153Z,6.82
2023-12-08T16:11:29.388Z,6.85
2023-12-08T16:13:56.355Z,6.43
2023-12-08T16:16:23.558Z,7.07
2023-12-08T16:18:52.232Z,7.18
2023-12-08T16:21:27.861Z,7.22
2023-12-08T16:23:55.783Z,7.07
2023-12-08T16:26:22.627Z,6.50
2023-12-08T16:28:49.824Z,6.70
2023-12-08T16:31:17.480Z,7.18
2023-12-08T16:33:48.814Z,7.65
2023-12-08T16:36:15.972Z,7.50
2023-12-08T16:38:42.863Z,7.28
2023-12-08T16:41:09.775Z,6.85
2023-12-08T16:43:37.427Z,7.32
2023-12-08T16:46:04.723Z,7.07
2023-12-08T16:48:31.631Z,7.20
2023-12-08T16:51:00.617Z,6.93
2023-12-08T16:53:29.083Z,6.88
2023-12-08T16:55:56.445Z,6.68
2023-12-08T16:58:23.266Z,6.93
2023-12-08T17:00:50.546Z,6.07
2023-12-08T17:03:17.521Z,6.90
2023-12-08T17:05:44.597Z,6.63
2023-12-08T17:08:11.589Z,7.15
2023-12-08T17:10:38.527Z,7.07
2023-12-08T17:13:05.401Z,6.80
2023-12-08T17:15:32.287Z,7.90
2023-12-08T17:17:59.490Z,7.65
2023-12-08T17:20:27.429Z,8.40
2023-12-08T17:22:54.403Z,7.97
2023-12-08T17:25:21.256Z,8.38
2023-12-08T17:27:48.166Z,7.63
2023-12-08T17:30:15.045Z,7.97
2023-12-08T17:32:41.895Z,8.23
2023-12-08T17:35:08.928Z,7.95
2023-12-08T17:37:35.961Z,7.70
2023-12-08T17:40:04.330Z,7.55
2023-12-08T17:42:31.335Z,7.60
2023-12-08T17:44:58.486Z,8.27
2023-12-08T17:47:25.352Z,8.07
2023-12-08T17:49:52.273Z,8.60
2023-12-08T17:52:22.890Z,7.93
2023-12-08T17:54:51.109Z,7.72
2023-12-08T17:57:17.986Z,7.65
2023-12-08T17:59:45.021Z,7.70
2023-12-08T18:02:11.984Z,7.85
2023-12-08T18:04:40.148Z,9.25
2023-12-08T18:07:10.617Z,8.55
2023-12-08T18:09:42.383Z,9.20
2023-12-08T18:12:09.878Z,8.52
2023-12-08T18:14:36.940Z,8.63
2023-12-08T18:17:04.208Z,9.25
2023-12-08T18:19:31.300Z,9.10
2023-12-08T18:21:58.700Z,8.48
2023-12-08T18:24:25.775Z,8.82
2023-12-08T18:26:54.373Z,7.93
2023-12-08T18:29:21.709Z,7.97
2023-12-08T18:31:49.106Z,7.75
2023-12-08T18:34:17.416Z,8.80
2023-12-08T18:36:44.327Z,7.65
2023-12-08T18:39:12.266Z,8.00
2023-12-08T18:41:39.788Z,8.65
2023-12-08T18:44:07.454Z,7.80
2023-12-08T18:46:34.595Z,7.75
2023-12-08T18:49:02.936Z,8.57
2023-12-08T18:51:30.735Z,8.10
2023-12-08T18:54:01.104Z,7.28
2023-12-08T18:56:27.977Z,7.85
2023-12-08T18:58:55.438Z,7.68
2023-12-08T19:01:25.137Z,7.88
2023-12-08T19:03:52.569Z,8.05
2023-12-08T19:06:20.623Z,8.07
2023-12-08T19:08:47.951Z,7.80
2023-12-08T19:11:15.274Z,7.60
2023-12-08T19:13:42.993Z,7.93
2023-12-08T19:16:09.908Z,7.95
2023-12-08T19:18:36.820Z,8.13
2023-12-08T19:21:03.962Z,8.38
2023-12-08T19:23:32.160Z,8.13
2023-12-08T19:26:01.080Z,8.32
2023-12-08T19:28:28.167Z,8.70
2023-12-08T19:30:55.017Z,8.25
2023-12-08T19:33:23.638Z,8.73
2023-12-08T19:35:51.070Z,8.88
2023-12-08T19:38:18.261Z,8.68
2023-12-08T19:40:46.211Z,8.73
2023-12-08T19:43:13.392Z,9.73
2023-12-08T19:45:40.792Z,9.90
2023-12-08T19:48:07.943Z,8.38
2023-12-08T19:50:35.012Z,7.45
2023-12-08T19:53:02.210Z,7.78
2023-12-08T19:55:29.140Z,7.30
2023-12-08T19:57:55.994Z,7.35
2023-12-08T20:00:22.969Z,7.55
2023-12-08T20:02:51.239Z,7.35
2023-12-08T20:05:18.110Z,6.95
2023-12-08T20:07:44.925Z,6.85
2023-12-08T20:10:11.855Z,7.20
2023-12-08T20:12:38.639Z,6.70
2023-12-08T20:15:06.447Z,6.72
2023-12-08T20:17:33.534Z,7.28
2023-12-08T20:20:00.790Z,7.53
2023-12-08T20:22:27.640Z,6.95
2023-12-08T20:24:54.533Z,7.35
2023-12-08T20:27:21.832Z,7.00
2023-12-08T20:29:49.304Z,6.93
2023-12-08T20:32:16.168Z,7.43
2023-12-08T20:34:44.085Z,7.20
2023-12-08T20:37:10.962Z,6.97
2023-12-08T20:39:37.840Z,6.53
2023-12-08T20:42:04.848Z,6.63
2023-12-08T20:44:31.731Z,6.93
2023-12-08T20:46:58.676Z,7.13
2023-12-08T20:49:25.589Z,7.50
2023-12-08T20:51:52.986Z,7.82
2023-12-08T20:54:21.693Z,7.38
2023-12-08T20:56:48.646Z,7.28
2023-12-08T20:59:15.527Z,7.05
2023-12-08T21:01:42.539Z,7.32
2023-12-08T21:04:09.878Z,7.57
2023-12-08T21:06:36.941Z,7.55
2023-12-08T21:09:14.972Z,7.50
2023-12-08T21:11:42.471Z,7.53
2023-12-08T21:14:09.793Z,7.90
2023-12-08T21:16:39.294Z,6.90
2023-12-08T21:19:06.321Z,8.05
2023-12-08T21:21:33.275Z,7.50
2023-12-08T21:24:00.412Z,6.93
2023-12-08T21:26:29.942Z,7.40
2023-12-08T21:28:56.824Z,7.20
2023-12-08T21:31:26.624Z,7.88
2023-12-08T21:33:53.589Z,7.15
2023-12-08T21:36:20.481Z,7.72
2023-12-08T21:38:47.356Z,7.65
2023-12-08T21:41:15.337Z,6.95
2023-12-08T21:43:42.254Z,7.88
2023-12-08T21:46:09.070Z,7.25
2023-12-08T21:48:36.169Z,7.70
2023-12-08T21:51:03.504Z,7.57
2023-12-08T21:53:30.377Z,7.47
2023-12-08T21:55:57.242Z,6.95
2023-12-08T21:58:24.037Z,6.72
2023-12-08T22:00:50.903Z,7.32
2023-12-08T22:03:18.021Z,7.95
2023-12-08T22:05:45.360Z,8.20
2023-12-08T22:08:12.145Z,7.38
2023-12-08T22:10:39.045Z,7.20
2023-12-08T22:13:05.877Z,7.07
2023-12-08T22:15:32.774Z,6.97
2023-12-08T22:17:59.659Z,7.63
2023-12-08T22:20:26.856Z,7.55
2023-12-08T22:22:53.642Z,6.90
2023-12-08T22:25:20.492Z,7.43
2023-12-08T22:27:47.302Z,6.97
2023-12-08T22:30:14.371Z,6.68
2023-12-08T22:32:41.305Z,6.93
2023-12-08T22:35:08.271Z,6.72
2023-12-08T22:37:35.097Z,7.18
2023-12-08T22:40:02.158Z,7.13
2023-12-08T22:42:29.184Z,7.00
2023-12-08T22:44:56.077Z,7.20
2023-12-08T22:47:22.917Z,7.13
2023-12-08T22:49:49.779Z,7.55
2023-12-08T22:52:16.736Z,7.10
2023-12-08T22:54:43.659Z,6.97
2023-12-08T22:57:10.575Z,7.03
2023-12-08T22:59:37.376Z,6.53
2023-12-08T23:02:04.178Z,7.22
2023-12-08T23:04:31.237Z,6.90
2023-12-08T23:06:58.073Z,6.80
2023-12-08T23:09:25.914Z,7.20
2023-12-08T23:11:52.939Z,6.97
2023-12-08T23:14:19.805Z,6.60
2023-12-08T23:16:46.586Z,7.15
2023-12-08T23:19:13.563Z,7.47
2023-12-08T23:21:41.516Z,7.15
2023-12-08T23:24:08.688Z,7.18
2023-12-08T23:26:35.629Z,6.63
2023-12-08T23:29:02.543Z,7.15
2023-12-08T23:31:29.371Z,7.32
2023-12-08T23:33:56.435Z,6.93
2023-12-08T23:36:23.589Z,7.43
2023-12-08T23:38:50.545Z,7.30
2023-12-08T23:41:17.382Z,7.07
2023-12-08T23:43:44.169Z,7.38
2023-12-08T23:46:11.104Z,6.80
2023-12-08T23:48:38.016Z,7.88
2023-12-08T23:51:05.454Z,7.20
2023-12-08T23:53:32.345Z,7.30
2023-12-08T23:55:59.170Z,7.10
2023-12-08T23:58:26.028Z,7.00
